createdAt,value
2017-10-27T00:01:42.696Z,98612.52
2017-10-27T00:04:10.176Z,98610.84
2017-10-27T00:06:37.802Z,98606.33
2017-10-27T00:09:05.278Z,98601.16
2017-10-27T00:11:32.776Z,98598.58
2017-10-27T00:14:00.256Z,98610.27
2017-10-27T00:16:27.747Z,98614.28
2017-10-27T00:18:55.285Z,98607.33
2017-10-27T00:21:22.779Z,98600.44
2017-10-27T00:23:50.292Z,98601.23
2017-10-27T00:26:17.795Z,98594.80
2017-10-27T00:28:45.312Z,98591.47
2017-10-27T00:31:12.880Z,98592.75
2017-10-27T00:33:40.400Z,98597.64
2017-10-27T00:36:07.927Z,98590.72
2017-10-27T00:38:35.443Z,98585.17
2017-10-27T00:41:02.960Z,98594.30
2017-10-27T00:43:30.558Z,98591.09
2017-10-27T00:45:58.129Z,98593.41
2017-10-27T00:48:25.635Z,98590.92
2017-10-27T00:50:53.162Z,98587.69
2017-10-27T00:53:35.598Z,98584.37
2017-10-27T00:56:03.094Z,98579.23
2017-10-27T00:58:30.608Z,98580.88
2017-10-27T01:01:13.067Z,98583.86
2017-10-27T01:03:41.031Z,98584.44
2017-10-27T01:06:08.571Z,98580.61
2017-10-27T01:08:36.082Z,98583.54
2017-10-27T01:11:03.595Z,98585.07
2017-10-27T01:16:03.547Z,98588.02
2017-10-27T01:18:31.055Z,98589.30
2017-10-27T01:20:58.561Z,98594.00
2017-10-27T01:23:26.208Z,98587.39
2017-10-27T01:25:53.731Z,98577.84
2017-10-27T01:28:21.236Z,98578.51
2017-10-27T01:30:48.748Z,98575.48
2017-10-27T01:33:16.330Z,98567.20
2017-10-27T01:35:43.848Z,98568.22
2017-10-27T01:38:11.364Z,98572.87
2017-10-27T01:40:38.884Z,98562.89
2017-10-27T01:43:08.131Z,98561.56
2017-10-27T01:48:10.640Z,98554.83
2017-10-27T01:50:38.160Z,98556.75
2017-10-27T01:53:06.542Z,98559.42
2017-10-27T01:55:34.060Z,98556.15
2017-10-27T01:58:01.581Z,98548.96
2017-10-27T02:00:29.120Z,98541.22
2017-10-27T02:02:56.642Z,98533.27
2017-10-27T02:05:24.148Z,98532.58
2017-10-27T02:07:51.657Z,98535.08
2017-10-27T02:10:19.175Z,98536.29
2017-10-27T02:12:46.680Z,98529.91
2017-10-27T02:15:14.218Z,98522.89
2017-10-27T02:17:41.726Z,98525.39
2017-10-27T02:20:09.227Z,98522.70
2017-10-27T02:22:36.744Z,98517.33
2017-10-27T02:25:04.260Z,98518.03
2017-10-27T02:27:31.784Z,98524.58
2017-10-27T02:29:59.299Z,98529.22
2017-10-27T02:32:26.832Z,98516.85
2017-10-27T02:34:54.359Z,98520.89
2017-10-27T02:37:21.867Z,98510.80
2017-10-27T02:39:49.380Z,98496.58
2017-10-27T02:42:16.927Z,98506.72
2017-10-27T02:44:45.398Z,98496.69
2017-10-27T02:47:28.635Z,98496.05
2017-10-27T02:49:56.168Z,98487.15
2017-10-27T02:52:23.801Z,98489.33
2017-10-27T02:54:51.304Z,98481.52
2017-10-27T02:57:18.847Z,98480.55
2017-10-27T02:59:46.385Z,98478.91
2017-10-27T03:02:13.904Z,98480.95
2017-10-27T03:04:41.418Z,98486.01
2017-10-27T03:07:08.936Z,98489.31
2017-10-27T03:09:36.461Z,98481.77
2017-10-27T03:12:03.988Z,98487.46
2017-10-27T03:14:31.492Z,98488.03
2017-10-27T03:16:59.001Z,98491.48
2017-10-27T03:19:26.526Z,98495.10
2017-10-27T03:21:54.064Z,98481.58
2017-10-27T03:24:21.583Z,98480.45
2017-10-27T03:26:49.103Z,98474.79
2017-10-27T03:29:16.618Z,98474.31
2017-10-27T03:31:44.125Z,98478.13
2017-10-27T03:34:11.675Z,98480.52
2017-10-27T03:36:39.181Z,98491.30
2017-10-27T03:39:06.729Z,98487.69
2017-10-27T03:41:34.235Z,98500.97
2017-10-27T03:44:01.741Z,98504.44
2017-10-27T03:46:29.272Z,98508.48
2017-10-27T03:48:56.793Z,98506.92
2017-10-27T03:51:24.336Z,98501.06
2017-10-27T03:53:51.858Z,98502.20
2017-10-27T03:56:21.224Z,98500.59
2017-10-27T03:58:48.772Z,98502.83
2017-10-27T04:01:16.286Z,98508.88
2017-10-27T04:03:43.830Z,98506.84
2017-10-27T04:06:11.356Z,98505.73
2017-10-27T04:08:38.859Z,98504.99
2017-10-27T04:11:06.366Z,98507.67
2017-10-27T04:13:33.885Z,98511.86
2017-10-27T04:16:01.392Z,98500.96
2017-10-27T04:18:28.902Z,98498.61
2017-10-27T04:20:56.431Z,98500.03
2017-10-27T04:23:23.951Z,98496.45
2017-10-27T04:25:57.989Z,98493.45
2017-10-27T04:28:25.495Z,98483.47
2017-10-27T04:30:53.019Z,98485.06
2017-10-27T04:33:31.774Z,98474.00
2017-10-27T04:35:59.282Z,98470.48
2017-10-27T04:38:26.795Z,98483.25
2017-10-27T04:40:54.318Z,98476.28
2017-10-27T04:43:21.832Z,98485.45
2017-10-27T04:45:51.828Z,98479.26
2017-10-27T04:48:19.363Z,98483.03
2017-10-27T04:50:46.939Z,98482.38
2017-10-27T04:53:14.620Z,98482.41
2017-10-27T04:55:42.127Z,98483.84
2017-10-27T04:58:09.647Z,98480.73
2017-10-27T05:00:37.151Z,98479.48
2017-10-27T05:03:04.679Z,98473.56
2017-10-27T05:05:32.188Z,98462.78
2017-10-27T05:07:59.717Z,98459.17
2017-10-27T05:10:27.220Z,98467.02
2017-10-27T05:12:54.731Z,98469.93
2017-10-27T05:15:22.234Z,98460.00
2017-10-27T05:17:55.330Z,98464.22
2017-10-27T05:20:28.575Z,98469.96
2017-10-27T05:23:01.723Z,98468.64
2017-10-27T05:25:29.244Z,98474.44
2017-10-27T05:27:56.757Z,98484.22
2017-10-27T05:30:24.269Z,98488.30
2017-10-27T05:32:51.788Z,98492.34
2017-10-27T05:35:19.298Z,98490.83
2017-10-27T05:37:46.828Z,98480.45
2017-10-27T05:40:14.341Z,98484.27
2017-10-27T05:42:41.859Z,98489.25
2017-10-27T05:45:09.414Z,98482.11
2017-10-27T05:47:36.927Z,98494.04
2017-10-27T05:50:05.015Z,98497.86
2017-10-27T05:52:32.523Z,98501.80
2017-10-27T05:55:00.040Z,98499.72
2017-10-27T05:57:27.563Z,98493.58
2017-10-27T05:59:55.104Z,98481.16
2017-10-27T06:02:23.440Z,98476.13
2017-10-27T06:04:50.969Z,98467.70
2017-10-27T06:07:19.323Z,98482.43
2017-10-27T06:09:46.832Z,98492.23
2017-10-27T06:12:14.342Z,98497.14
2017-10-27T06:14:41.868Z,98497.42
2017-10-27T06:17:09.404Z,98503.69
2017-10-27T06:19:36.948Z,98502.47
2017-10-27T06:22:13.104Z,98493.59
2017-10-27T06:24:40.625Z,98502.45
2017-10-27T06:27:08.177Z,98516.40
2017-10-27T06:29:35.692Z,98518.23
2017-10-27T06:32:03.280Z,98525.93
2017-10-27T06:34:30.791Z,98524.98
2017-10-27T06:36:58.294Z,98537.66
2017-10-27T06:39:35.728Z,98550.39
2017-10-27T06:42:06.202Z,98553.91
2017-10-27T06:44:52.215Z,98550.59
2017-10-27T06:47:19.715Z,98560.00
2017-10-27T06:49:47.218Z,98568.70
2017-10-27T06:56:20.155Z,98580.67
2017-10-27T06:58:47.666Z,98584.19
2017-10-27T07:01:15.189Z,98593.95
2017-10-27T07:03:42.712Z,98603.23
2017-10-27T07:06:10.238Z,98608.00
2017-10-27T07:08:37.763Z,98608.88
2017-10-27T07:11:05.290Z,98618.20
2017-10-27T07:13:32.802Z,98627.63
2017-10-27T07:16:00.346Z,98657.64
2017-10-27T07:18:27.855Z,98650.32
2017-10-27T07:20:55.401Z,98650.08
2017-10-27T07:23:22.915Z,98652.80
2017-10-27T07:25:50.443Z,98651.59
2017-10-27T07:28:34.763Z,98666.05
2017-10-27T07:31:02.291Z,98682.56
2017-10-27T07:33:29.790Z,98686.48
2017-10-27T07:35:57.304Z,98692.05
2017-10-27T07:38:24.864Z,98701.07
2017-10-27T07:40:52.416Z,98694.69
2017-10-27T07:43:20.047Z,98698.62
2017-10-27T07:45:47.604Z,98711.02
2017-10-27T07:48:26.503Z,98702.97
2017-10-27T07:50:54.049Z,98710.80
2017-10-27T07:53:21.590Z,98726.16
2017-10-27T07:55:49.133Z,98730.78
2017-10-27T07:58:16.668Z,98746.38
2017-10-27T08:00:44.287Z,98742.58
2017-10-27T08:03:11.791Z,98750.39
2017-10-27T08:05:39.333Z,98748.92
2017-10-27T08:08:06.869Z,98763.61
2017-10-27T08:10:34.430Z,98770.85
2017-10-27T08:13:04.859Z,98775.04
2017-10-27T08:15:32.436Z,98782.84
2017-10-27T08:17:59.985Z,98788.81
2017-10-27T08:20:27.517Z,98794.30
2017-10-27T08:22:55.099Z,98800.10
2017-10-27T08:25:22.648Z,98804.13
2017-10-27T08:27:53.212Z,98813.80
2017-10-27T08:30:20.727Z,98798.50
2017-10-27T08:32:48.239Z,98814.10
2017-10-27T08:35:15.825Z,98821.16
2017-10-27T08:37:43.335Z,98824.65
2017-10-27T08:40:10.839Z,98827.57
2017-10-27T08:42:38.344Z,98834.39
2017-10-27T08:45:05.853Z,98832.55
2017-10-27T08:47:33.380Z,98836.11
2017-10-27T08:50:00.881Z,98844.20
2017-10-27T08:52:28.404Z,98848.95
2017-10-27T08:54:56.036Z,98853.87
2017-10-27T08:57:23.593Z,98862.02
2017-10-27T08:59:52.584Z,98866.13
2017-10-27T09:02:20.095Z,98872.92
2017-10-27T09:04:47.606Z,98872.48
2017-10-27T09:07:15.128Z,98873.73
2017-10-27T09:09:42.639Z,98876.32
2017-10-27T09:12:10.169Z,98887.98
2017-10-27T09:14:37.698Z,98890.32
2017-10-27T09:17:05.222Z,98889.14
2017-10-27T09:19:32.744Z,98898.80
2017-10-27T09:22:00.248Z,98895.49
2017-10-27T09:24:27.787Z,98903.58
2017-10-27T09:26:55.311Z,98902.67
2017-10-27T09:29:22.818Z,98901.97
2017-10-27T09:31:50.340Z,98899.70
2017-10-27T09:34:17.843Z,98900.34
2017-10-27T09:36:45.373Z,98907.63
2017-10-27T09:39:12.899Z,98911.67
2017-10-27T09:41:40.401Z,98917.70
2017-10-27T09:44:07.931Z,98915.75
2017-10-27T09:46:35.470Z,98927.67
2017-10-27T09:49:02.994Z,98932.91
2017-10-27T09:51:30.511Z,98934.89
2017-10-27T09:54:01.724Z,98938.10
2017-10-27T09:56:29.269Z,98941.84
2017-10-27T09:58:56.788Z,98942.27
2017-10-27T10:01:24.295Z,98943.72
2017-10-27T10:03:51.811Z,98950.98
2017-10-27T10:06:19.327Z,98957.17
2017-10-27T10:08:46.854Z,98952.70
2017-10-27T10:11:14.436Z,98959.66
2017-10-27T10:13:42.061Z,98964.08
2017-10-27T10:16:09.579Z,98978.49
2017-10-27T10:18:37.089Z,98986.98
2017-10-27T10:21:04.653Z,99000.47
2017-10-27T10:23:32.173Z,99014.45
2017-10-27T10:25:59.686Z,99009.02
2017-10-27T10:28:27.212Z,98992.39
2017-10-27T10:30:54.718Z,99001.14
2017-10-27T10:33:22.225Z,98997.38
2017-10-27T10:35:49.757Z,98990.36
2017-10-27T10:38:17.266Z,99004.44
2017-10-27T10:40:44.785Z,99008.63
2017-10-27T10:43:23.094Z,99020.23
2017-10-27T10:45:50.666Z,99015.24
2017-10-27T10:48:18.202Z,99018.34
2017-10-27T10:50:45.744Z,99016.69
2017-10-27T10:53:13.257Z,99017.69
2017-10-27T10:55:40.792Z,99015.66
2017-10-27T10:58:08.363Z,99025.14
2017-10-27T11:00:35.909Z,99026.91
2017-10-27T11:03:04.403Z,99019.57
2017-10-27T11:05:31.959Z,99017.25
2017-10-27T11:07:59.467Z,99020.80
2017-10-27T11:10:27.014Z,99016.84
2017-10-27T11:12:54.672Z,99020.09
2017-10-27T11:26:55.852Z,99024.08
2017-10-27T11:29:23.416Z,99031.80
2017-10-27T11:31:50.947Z,99030.02
2017-10-27T11:53:58.387Z,99015.83
2017-10-27T11:56:26.079Z,99025.83
2017-10-27T11:58:53.643Z,99022.80
2017-10-27T12:01:21.175Z,99008.20
2017-10-27T12:03:51.795Z,99009.66
2017-10-27T12:06:19.324Z,99012.43
2017-10-27T12:08:46.850Z,99013.50
2017-10-27T12:11:14.398Z,98997.84
2017-10-27T12:13:41.923Z,99004.68
2017-10-27T12:16:10.816Z,99011.17
2017-10-27T12:18:38.326Z,99018.74
2017-10-27T12:21:05.925Z,99017.45
2017-10-27T12:23:33.449Z,99022.33
2017-10-27T12:26:01.002Z,99018.77
2017-10-27T12:28:28.531Z,99025.39
2017-10-27T12:31:03.809Z,99021.73
2017-10-27T12:33:31.331Z,99028.02
2017-10-27T12:35:58.843Z,99031.65
2017-10-27T12:38:29.167Z,99028.31
2017-10-27T12:40:56.671Z,99033.86
2017-10-27T12:43:24.213Z,99028.65
2017-10-27T12:45:51.760Z,99031.50
2017-10-27T12:48:19.298Z,99039.27
2017-10-27T12:50:46.918Z,99035.16
2017-10-27T12:53:14.420Z,99029.56
2017-10-27T12:55:48.366Z,99032.35
2017-10-27T12:58:15.893Z,99030.33
2017-10-27T13:00:43.451Z,99027.70
2017-10-27T13:03:10.995Z,99028.59
2017-10-27T13:05:38.527Z,99028.02
2017-10-27T13:11:02.276Z,99037.45
2017-10-27T13:13:29.808Z,99037.80
2017-10-27T13:15:57.423Z,99032.27
2017-10-27T13:18:24.951Z,99036.27
2017-10-27T13:20:52.469Z,99030.91
2017-10-27T13:23:20.014Z,99050.09
2017-10-27T13:25:47.564Z,99056.78
2017-10-27T13:28:15.107Z,99056.05
2017-10-27T13:30:42.634Z,99054.03
2017-10-27T13:33:10.180Z,99057.35
2017-10-27T13:35:37.747Z,99059.58
2017-10-27T13:38:05.276Z,99067.98
2017-10-27T13:40:32.795Z,99073.73
2017-10-27T13:43:00.309Z,99073.19
2017-10-27T13:45:27.928Z,99084.41
2017-10-27T13:47:57.170Z,99090.20
2017-10-27T13:50:24.692Z,99091.39
2017-10-27T13:52:52.195Z,99104.59
2017-10-27T13:55:19.704Z,99096.80
2017-10-27T13:57:48.054Z,99101.55
2017-10-27T14:00:15.588Z,99100.82
2017-10-27T14:02:43.122Z,99107.36
2017-10-27T14:05:10.638Z,99115.23
2017-10-27T14:07:38.175Z,99109.17
2017-10-27T14:10:05.746Z,99110.71
2017-10-27T14:12:34.521Z,99099.41
2017-10-27T14:15:04.504Z,99108.65
2017-10-27T14:17:32.048Z,99111.06
2017-10-27T14:19:59.550Z,99113.80
2017-10-27T14:22:27.084Z,99111.14
2017-10-27T14:24:54.646Z,99114.68
2017-10-27T14:27:34.518Z,99110.42
2017-10-27T14:30:02.051Z,99122.61
2017-10-27T14:32:29.571Z,99110.80
2017-10-27T14:34:57.094Z,99112.34
2017-10-27T14:37:24.616Z,99113.95
2017-10-27T14:39:52.127Z,99114.25
2017-10-27T14:42:20.213Z,99117.86
2017-10-27T14:44:48.969Z,99123.27
2017-10-27T14:47:16.784Z,99130.36
2017-10-27T14:49:44.733Z,99140.77
2017-10-27T14:52:12.672Z,99139.08
2017-10-27T15:15:12.082Z,99155.73
2017-10-27T15:17:39.624Z,99158.67
2017-10-27T15:20:07.151Z,99159.69
2017-10-27T15:22:34.683Z,99166.22
2017-10-27T15:25:02.203Z,99162.42
2017-10-27T15:27:29.717Z,99170.44
2017-10-27T15:41:31.068Z,99184.53
2017-10-27T15:43:58.628Z,99191.23
2017-10-27T15:46:26.168Z,99193.31
2017-10-27T15:48:53.762Z,99190.59
2017-10-27T15:51:25.135Z,99196.91
2017-10-27T15:53:52.663Z,99190.22
2017-10-27T15:56:20.195Z,99194.17
2017-10-27T15:58:48.747Z,99195.75
2017-10-27T16:01:16.264Z,99194.10
2017-10-27T16:03:43.808Z,99197.41
2017-10-27T16:06:11.331Z,99206.52
2017-10-27T16:08:38.861Z,99202.58
2017-10-27T16:11:06.384Z,99200.59
2017-10-27T16:13:33.912Z,99213.59
2017-10-27T16:16:01.432Z,99215.84
2017-10-27T16:18:28.955Z,99213.23
2017-10-27T16:20:56.473Z,99218.84
2017-10-27T16:23:24.208Z,99221.31
2017-10-27T16:25:51.723Z,99231.39
2017-10-27T16:28:21.903Z,99230.73
2017-10-27T16:30:49.411Z,99238.42
2017-10-27T16:33:16.928Z,99240.74
2017-10-27T16:35:44.451Z,99242.39
2017-10-27T16:38:11.951Z,99244.87
2017-10-27T16:40:40.355Z,99245.28
2017-10-27T16:43:07.868Z,99252.05
2017-10-27T16:45:35.414Z,99246.66
2017-10-27T16:48:02.935Z,99257.42
2017-10-27T16:50:30.443Z,99259.50
2017-10-27T16:52:57.974Z,99256.61
2017-10-27T16:55:26.459Z,99266.45
2017-10-27T16:57:53.989Z,99281.97
2017-10-27T17:03:17.696Z,99293.44
2017-10-27T17:05:45.216Z,99291.37
2017-10-27T17:08:12.760Z,99288.50
2017-10-27T17:10:40.320Z,99288.48
2017-10-27T17:13:07.827Z,99291.38
2017-10-27T17:15:35.346Z,99296.81
2017-10-27T17:18:02.881Z,99300.97
2017-10-27T17:20:30.410Z,99292.02
2017-10-27T17:22:57.983Z,99300.80
2017-10-27T17:25:25.522Z,99308.94
2017-10-27T17:27:53.044Z,99302.47
2017-10-27T17:30:20.609Z,99307.63
2017-10-27T17:32:48.159Z,99312.55
2017-10-27T17:35:15.671Z,99315.38
2017-10-27T17:37:43.207Z,99312.65
2017-10-27T17:40:10.719Z,99315.13
2017-10-27T17:42:38.272Z,99317.70
2017-10-27T17:45:05.792Z,99327.88
2017-10-27T17:47:33.330Z,99322.67
2017-10-27T17:50:00.826Z,99324.73
2017-10-27T17:55:24.666Z,99309.11
2017-10-27T17:57:52.188Z,99313.66
2017-10-27T18:00:19.862Z,99324.09
2017-10-27T18:02:47.442Z,99327.72
2017-10-27T18:05:14.978Z,99331.28
2017-10-27T18:07:42.490Z,99329.77
2017-10-27T18:10:09.999Z,99334.22
2017-10-27T18:12:37.524Z,99331.86
2017-10-27T18:15:05.032Z,99324.02
2017-10-27T18:17:32.546Z,99327.82
2017-10-27T18:20:00.066Z,99327.34
2017-10-27T18:22:27.603Z,99336.38
2017-10-27T18:24:55.132Z,99332.44
2017-10-27T18:27:22.641Z,99336.71
2017-10-27T18:29:50.189Z,99337.70
2017-10-27T18:32:27.635Z,99340.20
2017-10-27T18:34:55.223Z,99338.97
2017-10-27T18:37:22.728Z,99341.10
2017-10-27T18:39:50.352Z,99340.54
2017-10-27T18:42:17.851Z,99342.20
2017-10-27T18:44:45.518Z,99343.48
2017-10-27T18:47:13.044Z,99339.58
2017-10-27T18:49:40.556Z,99341.97
2017-10-27T18:52:08.061Z,99343.86
2017-10-27T18:54:35.550Z,99347.72
2017-10-27T18:57:03.066Z,99348.63
2017-10-27T18:59:30.598Z,99354.25
2017-10-27T19:01:58.087Z,99344.12
2017-10-27T19:04:25.653Z,99356.88
2017-10-27T19:06:53.229Z,99356.76
2017-10-27T19:09:20.775Z,99360.84
2017-10-27T19:11:48.408Z,99356.31
2017-10-27T19:14:15.935Z,99360.60
2017-10-27T19:16:43.467Z,99362.05
2017-10-27T19:19:10.980Z,99369.65
2017-10-27T19:21:38.502Z,99371.36
2017-10-27T19:24:06.020Z,99368.48
2017-10-27T19:26:33.551Z,99377.84
2017-10-27T19:29:01.070Z,99379.44
2017-10-27T19:31:28.576Z,99380.49
2017-10-27T19:33:56.424Z,99382.92
2017-10-27T19:36:23.987Z,99385.13
2017-10-27T19:38:51.481Z,99377.33
2017-10-27T19:41:19.007Z,99367.86
2017-10-27T19:43:46.535Z,99376.09
2017-10-27T19:46:14.050Z,99378.73
2017-10-27T19:48:41.566Z,99381.89
2017-10-27T19:51:09.073Z,99383.24
2017-10-27T19:53:36.577Z,99387.58
2017-10-27T19:56:04.086Z,99381.78
2017-10-27T19:58:31.600Z,99385.71
2017-10-27T20:00:59.103Z,99383.69
2017-10-27T20:03:26.648Z,99383.92
2017-10-27T20:05:54.179Z,99376.33
2017-10-27T20:08:21.745Z,99376.83
2017-10-27T20:10:49.306Z,99382.19
2017-10-27T20:13:16.823Z,99378.18
2017-10-27T20:15:44.381Z,99378.23
2017-10-27T20:18:11.969Z,99375.60
2017-10-27T20:20:39.449Z,99383.92
2017-10-27T20:23:06.959Z,99377.68
2017-10-27T20:25:34.459Z,99378.02
2017-10-27T20:28:01.960Z,99379.62
2017-10-27T20:30:30.461Z,99375.70
2017-10-27T20:32:58.086Z,99377.36
2017-10-27T20:35:25.583Z,99373.25
2017-10-27T20:37:53.126Z,99374.78
2017-10-27T20:40:20.719Z,99383.98
2017-10-27T20:42:48.240Z,99387.59
2017-10-27T20:45:15.753Z,99398.78
2017-10-27T20:47:43.264Z,99403.59
2017-10-27T20:50:10.759Z,99403.48
2017-10-27T20:52:38.272Z,99410.07
2017-10-27T20:55:05.796Z,99416.50
2017-10-27T20:57:33.320Z,99413.63
2017-10-27T21:00:00.865Z,99402.33
2017-10-27T21:02:28.377Z,99397.95
2017-10-27T21:04:55.877Z,99400.22
2017-10-27T21:07:23.421Z,99398.70
2017-10-27T21:09:50.966Z,99396.86
2017-10-27T21:12:18.491Z,99393.98
2017-10-27T21:14:45.999Z,99401.69
2017-10-27T21:17:13.531Z,99386.48
2017-10-27T21:19:41.033Z,99376.56
2017-10-27T21:22:08.585Z,99376.11
2017-10-27T21:24:36.125Z,99369.84
2017-10-27T21:27:03.634Z,99369.34
2017-10-27T21:29:31.187Z,99375.94
2017-10-27T21:31:58.674Z,99369.30
2017-10-27T21:34:26.209Z,99369.66
2017-10-27T21:36:53.729Z,99369.58
2017-10-27T21:39:21.315Z,99364.41
2017-10-27T21:41:48.820Z,99366.25
2017-10-27T21:44:16.327Z,99359.20
2017-10-27T21:46:43.833Z,99357.20
2017-10-27T21:49:11.351Z,99334.77
2017-10-27T21:51:38.863Z,99326.94
2017-10-27T21:54:06.384Z,99310.75
2017-10-27T21:56:33.896Z,99292.55
2017-10-27T21:59:01.394Z,99286.55
2017-10-27T22:01:28.903Z,99302.52
2017-10-27T22:03:56.423Z,99309.70
2017-10-27T22:06:23.961Z,99308.84
2017-10-27T22:08:51.454Z,99303.92
2017-10-27T22:11:19.064Z,99298.30
2017-10-27T22:13:46.605Z,99301.00
2017-10-27T22:16:14.117Z,99303.01
2017-10-27T22:18:41.606Z,99294.66
2017-10-27T22:21:09.112Z,99290.80
2017-10-27T22:23:36.611Z,99299.52
2017-10-27T22:26:04.115Z,99298.30
2017-10-27T22:28:31.636Z,99309.33
2017-10-27T22:30:59.127Z,99315.07
2017-10-27T22:33:26.636Z,99313.72
2017-10-27T22:35:54.141Z,99314.64
2017-10-27T22:38:21.638Z,99315.27
2017-10-27T22:41:01.035Z,99315.87
2017-10-27T22:43:28.582Z,99310.84
2017-10-27T22:45:56.081Z,99313.27
2017-10-27T22:48:23.580Z,99325.67
2017-10-27T22:50:51.085Z,99324.74
2017-10-27T22:53:18.581Z,99320.00
2017-10-27T22:55:46.084Z,99317.18
2017-10-27T22:58:13.593Z,99316.77
2017-10-27T23:00:41.112Z,99303.44
2017-10-27T23:03:08.627Z,99299.68
2017-10-27T23:05:36.130Z,99281.69
2017-10-27T23:08:09.275Z,99289.98
2017-10-27T23:10:36.782Z,99297.35
2017-10-27T23:13:04.278Z,99292.60
2017-10-27T23:15:31.789Z,99292.28
2017-10-27T23:17:59.283Z,99303.66
2017-10-27T23:20:26.785Z,99288.56
2017-10-27T23:22:54.392Z,99296.61
2017-10-27T23:25:21.885Z,99309.14
2017-10-27T23:27:49.367Z,99307.16
2017-10-27T23:30:16.865Z,99312.11
2017-10-27T23:32:44.406Z,99314.31
2017-10-27T23:35:11.887Z,99321.16
2017-10-27T23:37:39.379Z,99318.06
2017-10-27T23:40:06.875Z,99321.41
2017-10-27T23:42:34.370Z,99330.92
2017-10-27T23:45:01.889Z,99331.16
2017-10-27T23:47:29.414Z,99326.49
2017-10-27T23:49:56.907Z,99330.99
2017-10-27T23:52:24.405Z,99318.05
2017-10-27T23:54:51.912Z,99311.69
2017-10-27T23:57:19.449Z,99298.33
2017-10-27T23:59:46.964Z,99288.09
